sensor_id;sensor_type;location;lat;lon;timestamp;P1;durP1;ratioP1;P2;durP2;ratioP2
6638;SDS011;3355;52.882;8.430;2022-09-09T00:00:26;10.60;;;9.37;;
6638;SDS011;3355;52.882;8.430;2022-09-09T00:02:57;10.00;;;8.80;;
6638;SDS011;3355;52.882;8.430;2022-09-09T00:05:29;11.43;;;9.60;;
6638;SDS011;3355;52.882;8.430;2022-09-09T00:08:01;11.70;;;9.37;;
6638;SDS011;3355;52.882;8.430;2022-09-09T00:10:29;12.50;;;9.43;;
6638;SDS011;3355;52.882;8.430;2022-09-09T00:13:00;11.40;;;9.60;;
6638;SDS011;3355;52.882;8.430;2022-09-09T00:15:32;9.17;;;8.27;;
6638;SDS011;3355;52.882;8.430;2022-09-09T00:18:07;12.63;;;10.60;;
6638;SDS011;3355;52.882;8.430;2022-09-09T00:20:41;10.80;;;8.50;;
6638;SDS011;3355;52.882;8.430;2022-09-09T00:23:14;13.17;;;10.23;;
6638;SDS011;3355;52.882;8.430;2022-09-09T00:25:46;11.93;;;9.10;;
6638;SDS011;3355;52.882;8.430;2022-09-09T00:28:18;11.20;;;9.13;;
6638;SDS011;3355;52.882;8.430;2022-09-09T00:30:46;9.83;;;8.40;;
6638;SDS011;3355;52.882;8.430;2022-09-09T00:33:15;11.80;;;9.47;;
6638;SDS011;3355;52.882;8.430;2022-09-09T00:35:44;9.37;;;7.77;;
6638;SDS011;3355;52.882;8.430;2022-09-09T00:38:12;9.93;;;8.07;;
6638;SDS011;3355;52.882;8.430;2022-09-09T00:40:45;9.20;;;8.00;;
6638;SDS011;3355;52.882;8.430;2022-09-09T00:43:21;11.30;;;8.60;;
6638;SDS011;3355;52.882;8.430;2022-09-09T00:46:05;11.40;;;8.77;;
6638;SDS011;3355;52.882;8.430;2022-09-09T00:48:56;11.23;;;8.23;;
6638;SDS011;3355;52.882;8.430;2022-09-09T00:51:29;9.77;;;7.53;;
6638;SDS011;3355;52.882;8.430;2022-09-09T00:54:10;11.77;;;9.50;;
6638;SDS011;3355;52.882;8.430;2022-09-09T00:56:47;8.50;;;7.57;;
6638;SDS011;3355;52.882;8.430;2022-09-09T00:59:21;9.80;;;7.50;;
6638;SDS011;3355;52.882;8.430;2022-09-09T01:01:52;8.30;;;7.37;;
6638;SDS011;3355;52.882;8.430;2022-09-09T01:04:21;10.00;;;8.40;;
6638;SDS011;3355;52.882;8.430;2022-09-09T01:06:55;8.80;;;7.67;;
6638;SDS011;3355;52.882;8.430;2022-09-09T01:09:33;9.43;;;7.87;;
6638;SDS011;3355;52.882;8.430;2022-09-09T01:12:07;11.30;;;7.47;;
6638;SDS011;3355;52.882;8.430;2022-09-09T01:14:40;8.00;;;6.87;;
6638;SDS011;3355;52.882;8.430;2022-09-09T01:17:10;7.47;;;6.13;;
6638;SDS011;3355;52.882;8.430;2022-09-09T01:19:45;9.73;;;8.70;;
6638;SDS011;3355;52.882;8.430;2022-09-09T01:22:20;10.07;;;6.97;;
6638;SDS011;3355;52.882;8.430;2022-09-09T01:25:01;11.23;;;7.40;;
6638;SDS011;3355;52.882;8.430;2022-09-09T01:27:40;8.07;;;6.33;;
6638;SDS011;3355;52.882;8.430;2022-09-09T01:30:09;8.10;;;6.60;;
6638;SDS011;3355;52.882;8.430;2022-09-09T01:32:37;7.50;;;5.87;;
6638;SDS011;3355;52.882;8.430;2022-09-09T01:35:07;10.60;;;6.80;;
6638;SDS011;3355;52.882;8.430;2022-09-09T01:37:34;8.77;;;5.90;;
6638;SDS011;3355;52.882;8.430;2022-09-09T01:40:01;7.07;;;6.33;;
6638;SDS011;3355;52.882;8.430;2022-09-09T01:42:27;9.63;;;6.40;;
6638;SDS011;3355;52.882;8.430;2022-09-09T01:44:55;8.60;;;6.23;;
6638;SDS011;3355;52.882;8.430;2022-09-09T01:47:22;7.90;;;6.40;;
6638;SDS011;3355;52.882;8.430;2022-09-09T01:49:49;9.80;;;5.90;;
6638;SDS011;3355;52.882;8.430;2022-09-09T01:52:15;7.37;;;5.47;;
6638;SDS011;3355;52.882;8.430;2022-09-09T01:54:42;9.97;;;6.87;;
6638;SDS011;3355;52.882;8.430;2022-09-09T01:57:10;6.43;;;4.93;;
6638;SDS011;3355;52.882;8.430;2022-09-09T01:59:49;11.93;;;5.10;;
6638;SDS011;3355;52.882;8.430;2022-09-09T02:02:25;7.67;;;6.23;;
6638;SDS011;3355;52.882;8.430;2022-09-09T02:04:56;9.37;;;5.93;;
6638;SDS011;3355;52.882;8.430;2022-09-09T02:07:29;8.10;;;5.57;;
6638;SDS011;3355;52.882;8.430;2022-09-09T02:10:05;8.67;;;5.30;;
6638;SDS011;3355;52.882;8.430;2022-09-09T02:12:36;6.70;;;5.70;;
6638;SDS011;3355;52.882;8.430;2022-09-09T02:15:08;7.93;;;5.13;;
6638;SDS011;3355;52.882;8.430;2022-09-09T02:17:45;7.80;;;5.60;;
6638;SDS011;3355;52.882;8.430;2022-09-09T02:20:13;7.43;;;5.30;;
6638;SDS011;3355;52.882;8.430;2022-09-09T02:22:41;7.80;;;5.90;;
6638;SDS011;3355;52.882;8.430;2022-09-09T02:25:10;10.10;;;6.17;;
6638;SDS011;3355;52.882;8.430;2022-09-09T02:27:38;8.40;;;5.57;;
6638;SDS011;3355;52.882;8.430;2022-09-09T02:30:09;8.03;;;5.23;;
6638;SDS011;3355;52.882;8.430;2022-09-09T02:32:36;7.87;;;5.60;;
6638;SDS011;3355;52.882;8.430;2022-09-09T02:35:07;9.67;;;6.70;;
6638;SDS011;3355;52.882;8.430;2022-09-09T02:37:36;7.93;;;5.57;;
6638;SDS011;3355;52.882;8.430;2022-09-09T02:40:04;8.80;;;5.43;;
6638;SDS011;3355;52.882;8.430;2022-09-09T02:42:37;8.80;;;6.27;;
6638;SDS011;3355;52.882;8.430;2022-09-09T02:45:05;7.93;;;6.23;;
6638;SDS011;3355;52.882;8.430;2022-09-09T02:47:35;7.80;;;5.43;;
6638;SDS011;3355;52.882;8.430;2022-09-09T02:50:04;8.23;;;5.10;;
6638;SDS011;3355;52.882;8.430;2022-09-09T02:52:38;9.63;;;5.10;;
6638;SDS011;3355;52.882;8.430;2022-09-09T02:55:11;7.03;;;5.13;;
6638;SDS011;3355;52.882;8.430;2022-09-09T02:57:42;8.20;;;5.67;;
6638;SDS011;3355;52.882;8.430;2022-09-09T03:00:14;7.80;;;6.17;;
6638;SDS011;3355;52.882;8.430;2022-09-09T03:02:40;7.50;;;4.80;;
6638;SDS011;3355;52.882;8.430;2022-09-09T03:05:08;7.47;;;6.03;;
6638;SDS011;3355;52.882;8.430;2022-09-09T03:07:34;7.93;;;5.43;;
6638;SDS011;3355;52.882;8.430;2022-09-09T03:10:01;6.40;;;4.70;;
6638;SDS011;3355;52.882;8.430;2022-09-09T03:12:29;10.23;;;5.73;;
6638;SDS011;3355;52.882;8.430;2022-09-09T03:14:55;6.40;;;4.93;;
6638;SDS011;3355;52.882;8.430;2022-09-09T03:17:23;6.83;;;5.40;;
6638;SDS011;3355;52.882;8.430;2022-09-09T03:19:53;6.43;;;4.50;;
6638;SDS011;3355;52.882;8.430;2022-09-09T03:22:20;11.23;;;5.77;;
6638;SDS011;3355;52.882;8.430;2022-09-09T03:24:46;6.17;;;5.10;;
6638;SDS011;3355;52.882;8.430;2022-09-09T03:27:13;8.33;;;5.60;;
6638;SDS011;3355;52.882;8.430;2022-09-09T03:29:40;7.20;;;5.20;;
6638;SDS011;3355;52.882;8.430;2022-09-09T03:32:10;7.97;;;5.30;;
6638;SDS011;3355;52.882;8.430;2022-09-09T03:34:38;6.90;;;5.47;;
6638;SDS011;3355;52.882;8.430;2022-09-09T03:37:05;9.47;;;5.00;;
6638;SDS011;3355;52.882;8.430;2022-09-09T03:39:32;7.27;;;5.80;;
6638;SDS011;3355;52.882;8.430;2022-09-09T03:41:59;6.20;;;4.93;;
6638;SDS011;3355;52.882;8.430;2022-09-09T03:44:29;7.17;;;5.40;;
6638;SDS011;3355;52.882;8.430;2022-09-09T03:46:55;7.87;;;5.77;;
6638;SDS011;3355;52.882;8.430;2022-09-09T03:49:22;7.83;;;5.57;;
6638;SDS011;3355;52.882;8.430;2022-09-09T03:51:52;10.43;;;5.67;;
6638;SDS011;3355;52.882;8.430;2022-09-09T03:54:19;6.50;;;4.20;;
6638;SDS011;3355;52.882;8.430;2022-09-09T03:56:45;8.47;;;6.33;;
6638;SDS011;3355;52.882;8.430;2022-09-09T03:59:12;8.87;;;5.33;;
6638;SDS011;3355;52.882;8.430;2022-09-09T04:01:39;8.00;;;5.90;;
6638;SDS011;3355;52.882;8.430;2022-09-09T04:04:06;7.63;;;5.47;;
6638;SDS011;3355;52.882;8.430;2022-09-09T04:06:37;10.40;;;5.37;;
6638;SDS011;3355;52.882;8.430;2022-09-09T04:09:05;7.10;;;5.77;;
6638;SDS011;3355;52.882;8.430;2022-09-09T04:11:31;10.40;;;5.37;;
6638;SDS011;3355;52.882;8.430;2022-09-09T04:13:59;6.03;;;4.77;;
6638;SDS011;3355;52.882;8.430;2022-09-09T04:16:28;6.50;;;5.13;;
6638;SDS011;3355;52.882;8.430;2022-09-09T04:18:55;6.57;;;5.03;;
6638;SDS011;3355;52.882;8.430;2022-09-09T04:21:23;5.70;;;4.53;;
6638;SDS011;3355;52.882;8.430;2022-09-09T04:23:49;6.40;;;4.70;;
6638;SDS011;3355;52.882;8.430;2022-09-09T04:26:17;7.13;;;4.53;;
6638;SDS011;3355;52.882;8.430;2022-09-09T04:28:45;9.50;;;5.20;;
6638;SDS011;3355;52.882;8.430;2022-09-09T04:31:15;6.70;;;5.80;;
6638;SDS011;3355;52.882;8.430;2022-09-09T04:33:43;5.50;;;4.40;;
6638;SDS011;3355;52.882;8.430;2022-09-09T04:36:10;6.40;;;4.50;;
6638;SDS011;3355;52.882;8.430;2022-09-09T04:38:40;5.83;;;4.10;;
6638;SDS011;3355;52.882;8.430;2022-09-09T04:41:06;7.07;;;4.80;;
6638;SDS011;3355;52.882;8.430;2022-09-09T04:43:37;8.90;;;4.90;;
6638;SDS011;3355;52.882;8.430;2022-09-09T04:46:04;5.20;;;4.40;;
6638;SDS011;3355;52.882;8.430;2022-09-09T04:48:31;7.90;;;4.73;;
6638;SDS011;3355;52.882;8.430;2022-09-09T04:50:59;6.43;;;4.93;;
6638;SDS011;3355;52.882;8.430;2022-09-09T04:53:26;6.53;;;4.53;;
6638;SDS011;3355;52.882;8.430;2022-09-09T04:56:00;8.70;;;5.53;;
6638;SDS011;3355;52.882;8.430;2022-09-09T04:58:27;7.83;;;5.30;;
6638;SDS011;3355;52.882;8.430;2022-09-09T05:00:55;7.30;;;5.40;;
6638;SDS011;3355;52.882;8.430;2022-09-09T05:03:32;5.47;;;4.50;;
6638;SDS011;3355;52.882;8.430;2022-09-09T05:06:02;7.33;;;5.37;;
6638;SDS011;3355;52.882;8.430;2022-09-09T05:08:33;6.13;;;4.20;;
6638;SDS011;3355;52.882;8.430;2022-09-09T05:11:00;5.53;;;4.50;;
6638;SDS011;3355;52.882;8.430;2022-09-09T05:13:27;7.83;;;5.63;;
6638;SDS011;3355;52.882;8.430;2022-09-09T05:15:58;8.70;;;5.37;;
6638;SDS011;3355;52.882;8.430;2022-09-09T05:18:25;8.40;;;5.90;;
6638;SDS011;3355;52.882;8.430;2022-09-09T05:20:52;8.73;;;5.00;;
6638;SDS011;3355;52.882;8.430;2022-09-09T05:23:19;6.50;;;4.80;;
6638;SDS011;3355;52.882;8.430;2022-09-09T05:25:53;10.20;;;5.00;;
6638;SDS011;3355;52.882;8.430;2022-09-09T05:28:24;9.20;;;5.13;;
6638;SDS011;3355;52.882;8.430;2022-09-09T05:30:58;8.20;;;5.30;;
6638;SDS011;3355;52.882;8.430;2022-09-09T05:33:28;6.30;;;5.00;;
6638;SDS011;3355;52.882;8.430;2022-09-09T05:35:56;6.10;;;4.77;;
6638;SDS011;3355;52.882;8.430;2022-09-09T05:38:23;9.23;;;4.67;;
6638;SDS011;3355;52.882;8.430;2022-09-09T05:40:51;6.00;;;5.20;;
6638;SDS011;3355;52.882;8.430;2022-09-09T05:43:21;8.53;;;5.40;;
6638;SDS011;3355;52.882;8.430;2022-09-09T05:45:48;7.00;;;5.80;;
6638;SDS011;3355;52.882;8.430;2022-09-09T05:48:29;7.43;;;5.20;;
6638;SDS011;3355;52.882;8.430;2022-09-09T05:50:57;6.97;;;5.60;;
6638;SDS011;3355;52.882;8.430;2022-09-09T05:53:24;7.40;;;4.93;;
6638;SDS011;3355;52.882;8.430;2022-09-09T05:55:57;4.97;;;4.20;;
6638;SDS011;3355;52.882;8.430;2022-09-09T05:58:24;6.03;;;5.23;;
6638;SDS011;3355;52.882;8.430;2022-09-09T06:00:51;8.33;;;5.80;;
6638;SDS011;3355;52.882;8.430;2022-09-09T06:03:18;7.80;;;5.10;;
6638;SDS011;3355;52.882;8.430;2022-09-09T06:05:57;5.53;;;4.30;;
6638;SDS011;3355;52.882;8.430;2022-09-09T06:08:24;5.77;;;4.57;;
6638;SDS011;3355;52.882;8.430;2022-09-09T06:10:51;8.70;;;4.70;;
6638;SDS011;3355;52.882;8.430;2022-09-09T06:13:18;9.50;;;5.27;;
6638;SDS011;3355;52.882;8.430;2022-09-09T06:15:51;6.40;;;4.30;;
6638;SDS011;3355;52.882;8.430;2022-09-09T06:18:18;6.93;;;4.60;;
6638;SDS011;3355;52.882;8.430;2022-09-09T06:20:53;8.77;;;4.73;;
6638;SDS011;3355;52.882;8.430;2022-09-09T06:23:21;6.00;;;4.67;;
6638;SDS011;3355;52.882;8.430;2022-09-09T06:25:51;6.77;;;4.80;;
6638;SDS011;3355;52.882;8.430;2022-09-09T06:28:26;7.57;;;5.27;;
6638;SDS011;3355;52.882;8.430;2022-09-09T06:30:56;10.13;;;5.27;;
6638;SDS011;3355;52.882;8.430;2022-09-09T06:33:23;5.70;;;4.80;;
6638;SDS011;3355;52.882;8.430;2022-09-09T06:35:51;8.83;;;5.70;;
6638;SDS011;3355;52.882;8.430;2022-09-09T06:38:18;6.90;;;4.70;;
6638;SDS011;3355;52.882;8.430;2022-09-09T06:40:51;6.20;;;5.00;;
6638;SDS011;3355;52.882;8.430;2022-09-09T06:43:19;6.67;;;4.90;;
6638;SDS011;3355;52.882;8.430;2022-09-09T06:45:52;6.20;;;4.43;;
6638;SDS011;3355;52.882;8.430;2022-09-09T06:48:20;6.70;;;4.40;;
6638;SDS011;3355;52.882;8.430;2022-09-09T06:50:46;8.13;;;4.80;;
6638;SDS011;3355;52.882;8.430;2022-09-09T06:53:15;6.43;;;4.57;;
6638;SDS011;3355;52.882;8.430;2022-09-09T06:55:44;5.70;;;4.47;;
6638;SDS011;3355;52.882;8.430;2022-09-09T06:58:16;5.50;;;3.90;;
6638;SDS011;3355;52.882;8.430;2022-09-09T07:00:43;8.13;;;4.43;;
6638;SDS011;3355;52.882;8.430;2022-09-09T07:03:10;6.33;;;4.40;;
6638;SDS011;3355;52.882;8.430;2022-09-09T07:05:37;7.60;;;4.47;;
6638;SDS011;3355;52.882;8.430;2022-09-09T07:08:04;5.70;;;4.27;;
6638;SDS011;3355;52.882;8.430;2022-09-09T07:10:31;5.87;;;4.50;;
6638;SDS011;3355;52.882;8.430;2022-09-09T07:12:59;5.80;;;4.00;;
6638;SDS011;3355;52.882;8.430;2022-09-09T07:15:28;8.57;;;4.40;;
6638;SDS011;3355;52.882;8.430;2022-09-09T07:18:00;5.53;;;4.43;;
6638;SDS011;3355;52.882;8.430;2022-09-09T07:20:27;7.10;;;3.80;;
6638;SDS011;3355;52.882;8.430;2022-09-09T07:22:54;5.27;;;4.13;;
6638;SDS011;3355;52.882;8.430;2022-09-09T07:25:21;6.50;;;3.60;;
6638;SDS011;3355;52.882;8.430;2022-09-09T07:27:48;5.90;;;3.70;;
6638;SDS011;3355;52.882;8.430;2022-09-09T07:30:15;7.77;;;4.80;;
6638;SDS011;3355;52.882;8.430;2022-09-09T07:32:44;6.10;;;3.90;;
6638;SDS011;3355;52.882;8.430;2022-09-09T07:35:11;5.43;;;3.80;;
6638;SDS011;3355;52.882;8.430;2022-09-09T07:37:38;5.97;;;3.30;;
6638;SDS011;3355;52.882;8.430;2022-09-09T07:40:06;6.07;;;3.87;;
6638;SDS011;3355;52.882;8.430;2022-09-09T07:42:36;4.93;;;3.00;;
6638;SDS011;3355;52.882;8.430;2022-09-09T07:45:03;4.80;;;3.47;;
6638;SDS011;3355;52.882;8.430;2022-09-09T07:47:30;6.60;;;3.50;;
6638;SDS011;3355;52.882;8.430;2022-09-09T07:49:58;7.37;;;4.47;;
6638;SDS011;3355;52.882;8.430;2022-09-09T07:52:25;4.03;;;3.23;;
6638;SDS011;3355;52.882;8.430;2022-09-09T07:54:54;5.77;;;3.33;;
6638;SDS011;3355;52.882;8.430;2022-09-09T07:57:21;6.30;;;3.10;;
6638;SDS011;3355;52.882;8.430;2022-09-09T07:59:48;5.80;;;3.50;;
6638;SDS011;3355;52.882;8.430;2022-09-09T08:02:15;4.80;;;3.30;;
6638;SDS011;3355;52.882;8.430;2022-09-09T08:04:42;5.50;;;3.10;;
6638;SDS011;3355;52.882;8.430;2022-09-09T08:07:10;4.47;;;2.80;;
6638;SDS011;3355;52.882;8.430;2022-09-09T08:09:37;4.30;;;2.80;;
6638;SDS011;3355;52.882;8.430;2022-09-09T08:12:03;5.20;;;2.60;;
6638;SDS011;3355;52.882;8.430;2022-09-09T08:14:34;5.87;;;3.50;;
6638;SDS011;3355;52.882;8.430;2022-09-09T08:17:00;5.27;;;3.17;;
6638;SDS011;3355;52.882;8.430;2022-09-09T08:19:27;4.40;;;3.13;;
6638;SDS011;3355;52.882;8.430;2022-09-09T08:21:55;4.93;;;2.80;;
6638;SDS011;3355;52.882;8.430;2022-09-09T08:24:23;4.80;;;2.90;;
6638;SDS011;3355;52.882;8.430;2022-09-09T08:26:49;4.27;;;2.60;;
6638;SDS011;3355;52.882;8.430;2022-09-09T08:29:16;3.93;;;2.50;;
6638;SDS011;3355;52.882;8.430;2022-09-09T08:31:44;4.50;;;3.10;;
6638;SDS011;3355;52.882;8.430;2022-09-09T08:34:12;5.90;;;2.40;;
6638;SDS011;3355;52.882;8.430;2022-09-09T08:36:39;4.80;;;2.20;;
6638;SDS011;3355;52.882;8.430;2022-09-09T08:39:07;4.20;;;2.47;;
6638;SDS011;3355;52.882;8.430;2022-09-09T08:44:40;3.90;;;2.43;;
6638;SDS011;3355;52.882;8.430;2022-09-09T08:47:17;3.97;;;2.77;;
6638;SDS011;3355;52.882;8.430;2022-09-09T08:49:51;5.07;;;2.57;;
6638;SDS011;3355;52.882;8.430;2022-09-09T08:52:39;4.83;;;3.00;;
6638;SDS011;3355;52.882;8.430;2022-09-09T08:55:12;3.80;;;3.00;;
6638;SDS011;3355;52.882;8.430;2022-09-09T08:57:48;5.50;;;3.23;;
6638;SDS011;3355;52.882;8.430;2022-09-09T09:00:16;4.13;;;3.10;;
6638;SDS011;3355;52.882;8.430;2022-09-09T09:02:45;4.77;;;2.97;;
6638;SDS011;3355;52.882;8.430;2022-09-09T09:05:18;4.07;;;2.93;;
6638;SDS011;3355;52.882;8.430;2022-09-09T09:07:49;5.20;;;2.90;;
6638;SDS011;3355;52.882;8.430;2022-09-09T09:10:25;5.50;;;2.60;;
6638;SDS011;3355;52.882;8.430;2022-09-09T09:13:01;4.90;;;2.50;;
6638;SDS011;3355;52.882;8.430;2022-09-09T09:15:30;4.80;;;2.80;;
6638;SDS011;3355;52.882;8.430;2022-09-09T09:17:59;4.87;;;3.00;;
6638;SDS011;3355;52.882;8.430;2022-09-09T09:20:27;4.77;;;2.90;;
6638;SDS011;3355;52.882;8.430;2022-09-09T09:23:00;6.70;;;2.80;;
6638;SDS011;3355;52.882;8.430;2022-09-09T09:25:31;6.20;;;3.40;;
6638;SDS011;3355;52.882;8.430;2022-09-09T09:27:59;3.80;;;3.30;;
6638;SDS011;3355;52.882;8.430;2022-09-09T09:30:31;4.57;;;3.63;;
6638;SDS011;3355;52.882;8.430;2022-09-09T09:33:02;5.00;;;4.50;;
6638;SDS011;3355;52.882;8.430;2022-09-09T09:35:30;3.93;;;3.40;;
6638;SDS011;3355;52.882;8.430;2022-09-09T09:37:57;5.93;;;3.77;;
6638;SDS011;3355;52.882;8.430;2022-09-09T09:40:25;8.40;;;4.30;;
6638;SDS011;3355;52.882;8.430;2022-09-09T09:42:53;7.70;;;4.03;;
6638;SDS011;3355;52.882;8.430;2022-09-09T09:45:27;5.73;;;4.30;;
6638;SDS011;3355;52.882;8.430;2022-09-09T09:47:59;5.80;;;4.23;;
6638;SDS011;3355;52.882;8.430;2022-09-09T09:50:28;7.13;;;4.50;;
6638;SDS011;3355;52.882;8.430;2022-09-09T09:52:56;5.57;;;4.40;;
6638;SDS011;3355;52.882;8.430;2022-09-09T09:55:25;4.57;;;3.40;;
6638;SDS011;3355;52.882;8.430;2022-09-09T09:57:52;7.33;;;3.67;;
6638;SDS011;3355;52.882;8.430;2022-09-09T10:00:19;4.47;;;3.57;;
6638;SDS011;3355;52.882;8.430;2022-09-09T10:02:48;7.90;;;3.87;;
6638;SDS011;3355;52.882;8.430;2022-09-09T10:05:18;5.43;;;3.80;;
6638;SDS011;3355;52.882;8.430;2022-09-09T10:07:46;7.47;;;3.60;;
6638;SDS011;3355;52.882;8.430;2022-09-09T10:10:15;5.20;;;3.27;;
6638;SDS011;3355;52.882;8.430;2022-09-09T10:12:48;5.60;;;3.30;;
6638;SDS011;3355;52.882;8.430;2022-09-09T10:15:30;6.93;;;3.67;;
6638;SDS011;3355;52.882;8.430;2022-09-09T10:18:02;6.03;;;3.77;;
6638;SDS011;3355;52.882;8.430;2022-09-09T10:20:44;5.97;;;4.03;;
6638;SDS011;3355;52.882;8.430;2022-09-09T10:23:21;4.10;;;3.70;;
6638;SDS011;3355;52.882;8.430;2022-09-09T10:26:08;4.70;;;3.90;;
6638;SDS011;3355;52.882;8.430;2022-09-09T10:28:48;5.37;;;3.80;;
6638;SDS011;3355;52.882;8.430;2022-09-09T10:31:25;5.27;;;3.87;;
6638;SDS011;3355;52.882;8.430;2022-09-09T10:33:59;8.27;;;4.93;;
6638;SDS011;3355;52.882;8.430;2022-09-09T10:36:31;6.23;;;3.90;;
6638;SDS011;3355;52.882;8.430;2022-09-09T10:38:58;6.70;;;4.10;;
6638;SDS011;3355;52.882;8.430;2022-09-09T10:44:28;4.43;;;4.00;;
6638;SDS011;3355;52.882;8.430;2022-09-09T10:47:12;6.73;;;4.83;;
6638;SDS011;3355;52.882;8.430;2022-09-09T10:50:03;8.17;;;4.60;;
6638;SDS011;3355;52.882;8.430;2022-09-09T10:52:39;7.77;;;4.10;;
6638;SDS011;3355;52.882;8.430;2022-09-09T10:55:13;6.57;;;4.50;;
6638;SDS011;3355;52.882;8.430;2022-09-09T10:57:42;5.27;;;4.77;;
6638;SDS011;3355;52.882;8.430;2022-09-09T11:00:14;4.80;;;4.30;;
6638;SDS011;3355;52.882;8.430;2022-09-09T11:02:43;4.83;;;4.27;;
6638;SDS011;3355;52.882;8.430;2022-09-09T11:05:14;5.33;;;4.53;;
6638;SDS011;3355;52.882;8.430;2022-09-09T11:07:45;6.23;;;4.37;;
6638;SDS011;3355;52.882;8.430;2022-09-09T11:10:17;7.63;;;4.33;;
6638;SDS011;3355;52.882;8.430;2022-09-09T11:12:48;6.70;;;3.80;;
6638;SDS011;3355;52.882;8.430;2022-09-09T11:15:17;6.17;;;4.70;;
6638;SDS011;3355;52.882;8.430;2022-09-09T11:17:46;4.97;;;3.13;;
6638;SDS011;3355;52.882;8.430;2022-09-09T11:20:17;6.60;;;3.80;;
6638;SDS011;3355;52.882;8.430;2022-09-09T11:22:46;4.80;;;3.90;;
6638;SDS011;3355;52.882;8.430;2022-09-09T11:25:15;5.30;;;3.80;;
6638;SDS011;3355;52.882;8.430;2022-09-09T11:27:45;5.73;;;4.00;;
6638;SDS011;3355;52.882;8.430;2022-09-09T11:30:20;5.10;;;3.40;;
6638;SDS011;3355;52.882;8.430;2022-09-09T11:33:08;8.07;;;3.90;;
6638;SDS011;3355;52.882;8.430;2022-09-09T11:35:58;6.60;;;4.07;;
6638;SDS011;3355;52.882;8.430;2022-09-09T11:38:32;4.60;;;3.10;;
6638;SDS011;3355;52.882;8.430;2022-09-09T11:41:04;6.10;;;3.60;;
6638;SDS011;3355;52.882;8.430;2022-09-09T11:43:32;4.90;;;3.00;;
6638;SDS011;3355;52.882;8.430;2022-09-09T11:46:03;7.23;;;3.60;;
6638;SDS011;3355;52.882;8.430;2022-09-09T11:48:33;7.67;;;3.77;;
6638;SDS011;3355;52.882;8.430;2022-09-09T11:51:04;5.77;;;3.07;;
6638;SDS011;3355;52.882;8.430;2022-09-09T11:53:32;5.27;;;3.80;;
6638;SDS011;3355;52.882;8.430;2022-09-09T11:56:00;4.70;;;3.30;;
6638;SDS011;3355;52.882;8.430;2022-09-09T11:58:33;6.60;;;3.63;;
6638;SDS011;3355;52.882;8.430;2022-09-09T12:01:12;11.00;;;5.20;;
6638;SDS011;3355;52.882;8.430;2022-09-09T12:03:43;5.60;;;3.57;;
6638;SDS011;3355;52.882;8.430;2022-09-09T12:06:14;5.60;;;3.40;;
6638;SDS011;3355;52.882;8.430;2022-09-09T12:08:43;7.33;;;3.93;;
6638;SDS011;3355;52.882;8.430;2022-09-09T12:11:23;8.07;;;3.50;;
6638;SDS011;3355;52.882;8.430;2022-09-09T12:13:52;4.80;;;3.00;;
6638;SDS011;3355;52.882;8.430;2022-09-09T12:16:27;6.40;;;3.50;;
6638;SDS011;3355;52.882;8.430;2022-09-09T12:19:02;4.27;;;2.80;;
6638;SDS011;3355;52.882;8.430;2022-09-09T12:21:33;4.90;;;3.20;;
6638;SDS011;3355;52.882;8.430;2022-09-09T12:24:02;5.10;;;4.00;;
6638;SDS011;3355;52.882;8.430;2022-09-09T12:26:31;5.17;;;4.10;;
6638;SDS011;3355;52.882;8.430;2022-09-09T12:29:12;5.20;;;3.60;;
6638;SDS011;3355;52.882;8.430;2022-09-09T12:31:46;5.63;;;4.27;;
6638;SDS011;3355;52.882;8.430;2022-09-09T12:34:18;6.77;;;4.63;;
6638;SDS011;3355;52.882;8.430;2022-09-09T12:36:52;6.57;;;4.83;;
6638;SDS011;3355;52.882;8.430;2022-09-09T12:39:22;6.87;;;5.43;;
6638;SDS011;3355;52.882;8.430;2022-09-09T12:41:55;6.30;;;4.87;;
6638;SDS011;3355;52.882;8.430;2022-09-09T12:44:22;5.20;;;3.43;;
6638;SDS011;3355;52.882;8.430;2022-09-09T12:46:49;4.33;;;3.23;;
6638;SDS011;3355;52.882;8.430;2022-09-09T12:49:24;4.73;;;3.50;;
6638;SDS011;3355;52.882;8.430;2022-09-09T12:51:55;5.10;;;3.90;;
6638;SDS011;3355;52.882;8.430;2022-09-09T12:54:23;8.40;;;4.43;;
6638;SDS011;3355;52.882;8.430;2022-09-09T12:56:50;8.53;;;4.60;;
6638;SDS011;3355;52.882;8.430;2022-09-09T12:59:21;8.47;;;4.60;;
6638;SDS011;3355;52.882;8.430;2022-09-09T13:01:55;8.87;;;4.50;;
6638;SDS011;3355;52.882;8.430;2022-09-09T13:04:22;9.20;;;5.07;;
6638;SDS011;3355;52.882;8.430;2022-09-09T13:06:48;8.23;;;5.70;;
6638;SDS011;3355;52.882;8.430;2022-09-09T13:09:18;11.90;;;6.30;;
6638;SDS011;3355;52.882;8.430;2022-09-09T13:11:46;7.40;;;5.73;;
6638;SDS011;3355;52.882;8.430;2022-09-09T13:14:15;7.30;;;4.87;;
6638;SDS011;3355;52.882;8.430;2022-09-09T13:16:43;5.80;;;5.00;;
6638;SDS011;3355;52.882;8.430;2022-09-09T13:19:19;11.73;;;5.50;;
6638;SDS011;3355;52.882;8.430;2022-09-09T13:21:46;7.33;;;5.63;;
6638;SDS011;3355;52.882;8.430;2022-09-09T13:24:26;9.30;;;5.70;;
6638;SDS011;3355;52.882;8.430;2022-09-09T13:26:55;9.93;;;5.80;;
6638;SDS011;3355;52.882;8.430;2022-09-09T13:29:22;9.33;;;4.70;;
6638;SDS011;3355;52.882;8.430;2022-09-09T13:31:49;5.40;;;3.07;;
6638;SDS011;3355;52.882;8.430;2022-09-09T13:34:26;3.90;;;2.90;;
6638;SDS011;3355;52.882;8.430;2022-09-09T13:36:54;5.00;;;3.30;;
6638;SDS011;3355;52.882;8.430;2022-09-09T13:39:25;5.80;;;3.33;;
6638;SDS011;3355;52.882;8.430;2022-09-09T13:41:51;5.70;;;3.10;;
6638;SDS011;3355;52.882;8.430;2022-09-09T13:44:19;3.80;;;3.20;;
6638;SDS011;3355;52.882;8.430;2022-09-09T13:46:58;5.40;;;3.20;;
6638;SDS011;3355;52.882;8.430;2022-09-09T13:49:27;4.33;;;2.70;;
6638;SDS011;3355;52.882;8.430;2022-09-09T13:52:03;4.30;;;3.03;;
6638;SDS011;3355;52.882;8.430;2022-09-09T13:54:32;3.93;;;2.30;;
6638;SDS011;3355;52.882;8.430;2022-09-09T13:56:59;3.97;;;2.60;;
6638;SDS011;3355;52.882;8.430;2022-09-09T13:59:26;4.63;;;2.70;;
6638;SDS011;3355;52.882;8.430;2022-09-09T14:01:52;5.30;;;2.80;;
6638;SDS011;3355;52.882;8.430;2022-09-09T14:04:19;5.10;;;3.20;;
6638;SDS011;3355;52.882;8.430;2022-09-09T14:06:46;5.43;;;4.23;;
6638;SDS011;3355;52.882;8.430;2022-09-09T14:09:14;5.40;;;4.03;;
6638;SDS011;3355;52.882;8.430;2022-09-09T14:11:43;4.90;;;3.37;;
6638;SDS011;3355;52.882;8.430;2022-09-09T14:14:10;4.73;;;2.43;;
6638;SDS011;3355;52.882;8.430;2022-09-09T14:16:37;4.37;;;2.60;;
6638;SDS011;3355;52.882;8.430;2022-09-09T14:19:03;4.47;;;2.40;;
6638;SDS011;3355;52.882;8.430;2022-09-09T14:21:30;4.10;;;2.73;;
6638;SDS011;3355;52.882;8.430;2022-09-09T14:23:57;6.20;;;3.13;;
6638;SDS011;3355;52.882;8.430;2022-09-09T14:26:24;4.40;;;2.73;;
6638;SDS011;3355;52.882;8.430;2022-09-09T14:28:52;6.93;;;2.50;;
6638;SDS011;3355;52.882;8.430;2022-09-09T14:31:19;3.37;;;2.77;;
6638;SDS011;3355;52.882;8.430;2022-09-09T14:33:46;4.13;;;2.73;;
6638;SDS011;3355;52.882;8.430;2022-09-09T14:36:12;6.20;;;3.10;;
6638;SDS011;3355;52.882;8.430;2022-09-09T14:38:40;4.20;;;2.63;;
6638;SDS011;3355;52.882;8.430;2022-09-09T14:41:07;3.47;;;3.03;;
6638;SDS011;3355;52.882;8.430;2022-09-09T14:43:37;5.30;;;3.27;;
6638;SDS011;3355;52.882;8.430;2022-09-09T14:46:08;4.03;;;3.00;;
6638;SDS011;3355;52.882;8.430;2022-09-09T14:48:35;5.23;;;3.10;;
6638;SDS011;3355;52.882;8.430;2022-09-09T14:51:05;10.50;;;3.53;;
6638;SDS011;3355;52.882;8.430;2022-09-09T14:53:33;4.47;;;3.50;;
6638;SDS011;3355;52.882;8.430;2022-09-09T14:56:03;4.63;;;2.47;;
6638;SDS011;3355;52.882;8.430;2022-09-09T14:58:33;5.17;;;2.53;;
6638;SDS011;3355;52.882;8.430;2022-09-09T15:01:04;5.63;;;3.00;;
6638;SDS011;3355;52.882;8.430;2022-09-09T15:03:32;8.17;;;3.20;;
6638;SDS011;3355;52.882;8.430;2022-09-09T15:06:04;4.30;;;3.00;;
6638;SDS011;3355;52.882;8.430;2022-09-09T15:08:31;4.17;;;2.90;;
6638;SDS011;3355;52.882;8.430;2022-09-09T15:11:00;4.27;;;3.20;;
6638;SDS011;3355;52.882;8.430;2022-09-09T15:13:27;4.37;;;2.97;;
6638;SDS011;3355;52.882;8.430;2022-09-09T15:15:54;5.00;;;3.40;;
6638;SDS011;3355;52.882;8.430;2022-09-09T15:18:20;5.30;;;4.03;;
6638;SDS011;3355;52.882;8.430;2022-09-09T15:20:49;4.00;;;3.37;;
6638;SDS011;3355;52.882;8.430;2022-09-09T15:23:15;4.60;;;3.20;;
6638;SDS011;3355;52.882;8.430;2022-09-09T15:25:49;4.83;;;3.60;;
6638;SDS011;3355;52.882;8.430;2022-09-09T15:28:17;5.63;;;3.50;;
6638;SDS011;3355;52.882;8.430;2022-09-09T15:30:46;5.67;;;3.23;;
6638;SDS011;3355;52.882;8.430;2022-09-09T15:33:13;6.53;;;3.97;;
6638;SDS011;3355;52.882;8.430;2022-09-09T15:35:40;5.43;;;3.43;;
6638;SDS011;3355;52.882;8.430;2022-09-09T15:38:08;4.47;;;3.77;;